sensor_id;sensor_type;location;lat;lon;timestamp;P1;durP1;ratioP1;P2;durP2;ratioP2
14074;SDS011;12831;52.392;13.066;2023-04-01T00:00:03;5.57;;;1.75;;
14074;SDS011;12831;52.392;13.066;2023-04-01T00:02:29;7.75;;;1.08;;
14074;SDS011;12831;52.392;13.066;2023-04-01T00:04:55;7.35;;;2.25;;
14074;SDS011;12831;52.392;13.066;2023-04-01T00:07:21;2.30;;;1.13;;
14074;SDS011;12831;52.392;13.066;2023-04-01T00:09:47;2.85;;;1.60;;
14074;SDS011;12831;52.392;13.066;2023-04-01T00:12:13;4.93;;;1.83;;
14074;SDS011;12831;52.392;13.066;2023-04-01T00:14:39;2.38;;;1.20;;
14074;SDS011;12831;52.392;13.066;2023-04-01T00:17:05;2.85;;;1.50;;
14074;SDS011;12831;52.392;13.066;2023-04-01T00:19:31;6.30;;;1.70;;
14074;SDS011;12831;52.392;13.066;2023-04-01T00:21:58;4.07;;;1.52;;
14074;SDS011;12831;52.392;13.066;2023-04-01T00:24:23;3.38;;;1.25;;
14074;SDS011;12831;52.392;13.066;2023-04-01T00:26:49;5.03;;;1.58;;
14074;SDS011;12831;52.392;13.066;2023-04-01T00:29:15;6.45;;;1.75;;
14074;SDS011;12831;52.392;13.066;2023-04-01T00:31:41;3.33;;;1.08;;
14074;SDS011;12831;52.392;13.066;2023-04-01T00:34:07;3.00;;;1.30;;
14074;SDS011;12831;52.392;13.066;2023-04-01T00:36:32;2.75;;;1.30;;
14074;SDS011;12831;52.392;13.066;2023-04-01T00:38:58;3.28;;;1.30;;
14074;SDS011;12831;52.392;13.066;2023-04-01T00:41:24;3.45;;;1.38;;
14074;SDS011;12831;52.392;13.066;2023-04-01T00:43:51;5.35;;;1.38;;
14074;SDS011;12831;52.392;13.066;2023-04-01T00:46:18;2.20;;;1.05;;
14074;SDS011;12831;52.392;13.066;2023-04-01T00:48:45;3.58;;;0.88;;
14074;SDS011;12831;52.392;13.066;2023-04-01T00:51:17;7.68;;;1.17;;
14074;SDS011;12831;52.392;13.066;2023-04-01T00:53:45;4.03;;;1.00;;
14074;SDS011;12831;52.392;13.066;2023-04-01T00:56:13;4.22;;;1.10;;
14074;SDS011;12831;52.392;13.066;2023-04-01T00:58:47;3.72;;;1.40;;
14074;SDS011;12831;52.392;13.066;2023-04-01T01:01:14;3.17;;;1.20;;
14074;SDS011;12831;52.392;13.066;2023-04-01T01:03:41;5.28;;;1.00;;
14074;SDS011;12831;52.392;13.066;2023-04-01T01:06:11;8.57;;;1.75;;
14074;SDS011;12831;52.392;13.066;2023-04-01T01:08:46;4.32;;;1.25;;
14074;SDS011;12831;52.392;13.066;2023-04-01T01:11:16;3.03;;;1.55;;
14074;SDS011;12831;52.392;13.066;2023-04-01T01:24:05;2.38;;;1.02;;
14074;SDS011;12831;52.392;13.066;2023-04-01T01:31:58;2.85;;;1.20;;
14074;SDS011;12831;52.392;13.066;2023-04-01T01:36:58;5.53;;;1.10;;
14074;SDS011;12831;52.392;13.066;2023-04-01T01:39:29;3.03;;;1.17;;
14074;SDS011;12831;52.392;13.066;2023-04-01T01:44:21;2.70;;;1.13;;
14074;SDS011;12831;52.392;13.066;2023-04-01T01:46:48;3.92;;;1.08;;
14074;SDS011;12831;52.392;13.066;2023-04-01T01:49:15;3.00;;;1.05;;
14074;SDS011;12831;52.392;13.066;2023-04-01T01:51:43;2.63;;;1.27;;
14074;SDS011;12831;52.392;13.066;2023-04-01T01:54:15;3.30;;;1.30;;
14074;SDS011;12831;52.392;13.066;2023-04-01T01:56:42;2.28;;;1.20;;
14074;SDS011;12831;52.392;13.066;2023-04-01T01:59:10;3.38;;;1.33;;
14074;SDS011;12831;52.392;13.066;2023-04-01T02:01:38;2.90;;;1.30;;
14074;SDS011;12831;52.392;13.066;2023-04-01T02:04:05;9.10;;;1.90;;
14074;SDS011;12831;52.392;13.066;2023-04-01T02:06:32;5.20;;;1.30;;
14074;SDS011;12831;52.392;13.066;2023-04-01T02:09:00;5.45;;;1.73;;
14074;SDS011;12831;52.392;13.066;2023-04-01T02:14:01;3.35;;;1.30;;
14074;SDS011;12831;52.392;13.066;2023-04-01T02:16:31;4.43;;;1.27;;
14074;SDS011;12831;52.392;13.066;2023-04-01T02:18:57;3.85;;;1.80;;
14074;SDS011;12831;52.392;13.066;2023-04-01T02:21:26;3.80;;;1.00;;
14074;SDS011;12831;52.392;13.066;2023-04-01T02:23:53;5.47;;;2.15;;
14074;SDS011;12831;52.392;13.066;2023-04-01T02:26:19;4.97;;;1.63;;
14074;SDS011;12831;52.392;13.066;2023-04-01T02:28:46;3.17;;;1.10;;
14074;SDS011;12831;52.392;13.066;2023-04-01T02:31:12;4.32;;;2.00;;
14074;SDS011;12831;52.392;13.066;2023-04-01T02:33:38;5.03;;;1.67;;
14074;SDS011;12831;52.392;13.066;2023-04-01T02:36:04;6.25;;;1.40;;
14074;SDS011;12831;52.392;13.066;2023-04-01T02:38:30;5.97;;;1.73;;
14074;SDS011;12831;52.392;13.066;2023-04-01T02:41:00;6.35;;;1.70;;
14074;SDS011;12831;52.392;13.066;2023-04-01T02:43:26;3.30;;;1.48;;
14074;SDS011;12831;52.392;13.066;2023-04-01T02:45:52;5.53;;;2.28;;
14074;SDS011;12831;52.392;13.066;2023-04-01T02:48:18;6.03;;;1.63;;
14074;SDS011;12831;52.392;13.066;2023-04-01T02:50:44;2.85;;;1.25;;
14074;SDS011;12831;52.392;13.066;2023-04-01T02:53:10;2.80;;;1.15;;
14074;SDS011;12831;52.392;13.066;2023-04-01T02:55:35;4.22;;;1.58;;
14074;SDS011;12831;52.392;13.066;2023-04-01T02:58:01;4.13;;;1.50;;
14074;SDS011;12831;52.392;13.066;2023-04-01T03:00:27;6.30;;;1.63;;
14074;SDS011;12831;52.392;13.066;2023-04-01T03:02:53;3.75;;;2.28;;
14074;SDS011;12831;52.392;13.066;2023-04-01T03:05:19;4.47;;;1.85;;
14074;SDS011;12831;52.392;13.066;2023-04-01T03:07:45;9.55;;;1.85;;
14074;SDS011;12831;52.392;13.066;2023-04-01T03:10:11;5.30;;;1.85;;
14074;SDS011;12831;52.392;13.066;2023-04-01T03:12:37;3.25;;;1.08;;
14074;SDS011;12831;52.392;13.066;2023-04-01T03:15:02;4.43;;;1.75;;
14074;SDS011;12831;52.392;13.066;2023-04-01T03:17:37;5.05;;;1.55;;
14074;SDS011;12831;52.392;13.066;2023-04-01T03:20:03;13.25;;;1.45;;
14074;SDS011;12831;52.392;13.066;2023-04-01T03:22:30;6.57;;;1.80;;
14074;SDS011;12831;52.392;13.066;2023-04-01T03:24:56;6.32;;;1.50;;
14074;SDS011;12831;52.392;13.066;2023-04-01T03:27:22;4.25;;;1.27;;
14074;SDS011;12831;52.392;13.066;2023-04-01T03:29:48;7.13;;;1.88;;
14074;SDS011;12831;52.392;13.066;2023-04-01T03:32:14;3.33;;;1.60;;
14074;SDS011;12831;52.392;13.066;2023-04-01T03:34:40;3.25;;;1.60;;
14074;SDS011;12831;52.392;13.066;2023-04-01T03:37:06;10.38;;;1.70;;
14074;SDS011;12831;52.392;13.066;2023-04-01T03:39:32;6.22;;;1.75;;
14074;SDS011;12831;52.392;13.066;2023-04-01T03:41:57;4.78;;;1.90;;
14074;SDS011;12831;52.392;13.066;2023-04-01T03:44:23;10.48;;;2.63;;
14074;SDS011;12831;52.392;13.066;2023-04-01T03:46:49;6.63;;;2.33;;
14074;SDS011;12831;52.392;13.066;2023-04-01T03:49:15;6.47;;;1.48;;
14074;SDS011;12831;52.392;13.066;2023-04-01T03:51:42;4.47;;;1.65;;
14074;SDS011;12831;52.392;13.066;2023-04-01T03:54:08;6.15;;;1.67;;
14074;SDS011;12831;52.392;13.066;2023-04-01T03:56:34;4.15;;;1.48;;
14074;SDS011;12831;52.392;13.066;2023-04-01T03:59:03;4.75;;;1.20;;
14074;SDS011;12831;52.392;13.066;2023-04-01T04:01:32;5.53;;;1.48;;
14074;SDS011;12831;52.392;13.066;2023-04-01T04:03:58;4.47;;;1.52;;
14074;SDS011;12831;52.392;13.066;2023-04-01T04:06:25;5.13;;;1.35;;
14074;SDS011;12831;52.392;13.066;2023-04-01T04:08:51;7.18;;;2.10;;
14074;SDS011;12831;52.392;13.066;2023-04-01T04:11:18;4.60;;;1.50;;
14074;SDS011;12831;52.392;13.066;2023-04-01T04:13:44;10.25;;;2.92;;
14074;SDS011;12831;52.392;13.066;2023-04-01T04:16:10;6.63;;;1.40;;
14074;SDS011;12831;52.392;13.066;2023-04-01T04:18:36;5.13;;;1.77;;
14074;SDS011;12831;52.392;13.066;2023-04-01T04:21:03;5.32;;;1.83;;
14074;SDS011;12831;52.392;13.066;2023-04-01T04:23:29;6.55;;;1.40;;
14074;SDS011;12831;52.392;13.066;2023-04-01T04:26:00;4.65;;;1.58;;
14074;SDS011;12831;52.392;13.066;2023-04-01T04:28:26;7.75;;;3.25;;
14074;SDS011;12831;52.392;13.066;2023-04-01T04:31:01;5.95;;;2.15;;
14074;SDS011;12831;52.392;13.066;2023-04-01T04:33:27;4.30;;;1.50;;
14074;SDS011;12831;52.392;13.066;2023-04-01T04:35:57;5.03;;;1.83;;
14074;SDS011;12831;52.392;13.066;2023-04-01T04:38:23;4.88;;;1.25;;
14074;SDS011;12831;52.392;13.066;2023-04-01T04:40:49;4.32;;;1.73;;
14074;SDS011;12831;52.392;13.066;2023-04-01T04:43:16;9.15;;;2.08;;
14074;SDS011;12831;52.392;13.066;2023-04-01T04:45:42;5.32;;;1.50;;
14074;SDS011;12831;52.392;13.066;2023-04-01T04:48:08;5.80;;;1.52;;
14074;SDS011;12831;52.392;13.066;2023-04-01T04:50:34;4.45;;;1.95;;
14074;SDS011;12831;52.392;13.066;2023-04-01T04:53:01;5.85;;;2.35;;
14074;SDS011;12831;52.392;13.066;2023-04-01T04:55:27;5.38;;;1.27;;
14074;SDS011;12831;52.392;13.066;2023-04-01T04:57:53;8.70;;;1.90;;
14074;SDS011;12831;52.392;13.066;2023-04-01T05:00:19;6.85;;;1.80;;
14074;SDS011;12831;52.392;13.066;2023-04-01T05:02:44;6.15;;;1.83;;
14074;SDS011;12831;52.392;13.066;2023-04-01T05:05:10;4.75;;;1.55;;
14074;SDS011;12831;52.392;13.066;2023-04-01T05:07:36;10.32;;;1.95;;
14074;SDS011;12831;52.392;13.066;2023-04-01T05:10:02;7.28;;;2.40;;
14074;SDS011;12831;52.392;13.066;2023-04-01T05:12:28;6.00;;;1.90;;
14074;SDS011;12831;52.392;13.066;2023-04-01T05:14:54;4.50;;;1.70;;
14074;SDS011;12831;52.392;13.066;2023-04-01T05:17:20;8.82;;;2.75;;
14074;SDS011;12831;52.392;13.066;2023-04-01T05:19:46;4.80;;;1.80;;
14074;SDS011;12831;52.392;13.066;2023-04-01T05:22:12;3.75;;;2.00;;
14074;SDS011;12831;52.392;13.066;2023-04-01T05:24:37;6.82;;;1.98;;
14074;SDS011;12831;52.392;13.066;2023-04-01T05:27:03;4.57;;;1.60;;
14074;SDS011;12831;52.392;13.066;2023-04-01T05:29:29;4.63;;;1.35;;
14074;SDS011;12831;52.392;13.066;2023-04-01T05:32:10;7.28;;;2.47;;
14074;SDS011;12831;52.392;13.066;2023-04-01T05:34:36;5.88;;;2.10;;
14074;SDS011;12831;52.392;13.066;2023-04-01T05:37:02;4.50;;;1.58;;
14074;SDS011;12831;52.392;13.066;2023-04-01T05:39:28;5.63;;;1.98;;
14074;SDS011;12831;52.392;13.066;2023-04-01T05:41:53;6.38;;;2.42;;
14074;SDS011;12831;52.392;13.066;2023-04-01T05:44:19;6.43;;;1.98;;
14074;SDS011;12831;52.392;13.066;2023-04-01T05:46:45;6.43;;;1.75;;
14074;SDS011;12831;52.392;13.066;2023-04-01T05:49:11;10.00;;;3.88;;
14074;SDS011;12831;52.392;13.066;2023-04-01T05:51:37;5.05;;;2.33;;
14074;SDS011;12831;52.392;13.066;2023-04-01T05:54:06;7.90;;;1.80;;
14074;SDS011;12831;52.392;13.066;2023-04-01T05:56:32;4.63;;;1.67;;
14074;SDS011;12831;52.392;13.066;2023-04-01T05:58:57;5.15;;;1.33;;
14074;SDS011;12831;52.392;13.066;2023-04-01T06:01:26;4.93;;;1.58;;
14074;SDS011;12831;52.392;13.066;2023-04-01T06:03:52;2.63;;;1.00;;
14074;SDS011;12831;52.392;13.066;2023-04-01T06:06:25;4.25;;;1.80;;
14074;SDS011;12831;52.392;13.066;2023-04-01T06:08:52;3.95;;;1.45;;
14074;SDS011;12831;52.392;13.066;2023-04-01T06:11:40;2.60;;;1.30;;
14074;SDS011;12831;52.392;13.066;2023-04-01T06:19:36;3.17;;;1.23;;
14074;SDS011;12831;52.392;13.066;2023-04-01T06:22:13;4.45;;;1.75;;
14074;SDS011;12831;52.392;13.066;2023-04-01T06:24:48;4.20;;;1.30;;
14074;SDS011;12831;52.392;13.066;2023-04-01T06:30:24;4.90;;;2.13;;
14074;SDS011;12831;52.392;13.066;2023-04-01T06:38:18;2.67;;;1.30;;
14074;SDS011;12831;52.392;13.066;2023-04-01T06:40:52;5.38;;;1.23;;
14074;SDS011;12831;52.392;13.066;2023-04-01T06:46:00;5.28;;;1.90;;
14074;SDS011;12831;52.392;13.066;2023-04-01T06:48:50;4.25;;;2.55;;
14074;SDS011;12831;52.392;13.066;2023-04-01T06:54:21;9.50;;;2.95;;
14074;SDS011;12831;52.392;13.066;2023-04-01T06:56:51;7.22;;;1.75;;
14074;SDS011;12831;52.392;13.066;2023-04-01T06:59:19;5.43;;;1.42;;
14074;SDS011;12831;52.392;13.066;2023-04-01T07:01:49;7.50;;;2.33;;
14074;SDS011;12831;52.392;13.066;2023-04-01T07:04:17;5.43;;;2.13;;
14074;SDS011;12831;52.392;13.066;2023-04-01T07:06:50;9.65;;;2.33;;
14074;SDS011;12831;52.392;13.066;2023-04-01T07:09:26;3.40;;;1.23;;
14074;SDS011;12831;52.392;13.066;2023-04-01T07:11:56;6.78;;;1.88;;
14074;SDS011;12831;52.392;13.066;2023-04-01T07:14:25;5.25;;;2.28;;
14074;SDS011;12831;52.392;13.066;2023-04-01T07:16:56;5.38;;;1.58;;
14074;SDS011;12831;52.392;13.066;2023-04-01T07:19:26;3.35;;;1.92;;
14074;SDS011;12831;52.392;13.066;2023-04-01T07:21:56;3.22;;;1.70;;
14074;SDS011;12831;52.392;13.066;2023-04-01T07:26:49;3.00;;;1.73;;
14074;SDS011;12831;52.392;13.066;2023-04-01T07:29:17;6.88;;;2.13;;
14074;SDS011;12831;52.392;13.066;2023-04-01T07:35:00;3.97;;;1.38;;
14074;SDS011;12831;52.392;13.066;2023-04-01T07:45:13;4.65;;;1.60;;
14074;SDS011;12831;52.392;13.066;2023-04-01T07:47:54;8.13;;;2.03;;
14074;SDS011;12831;52.392;13.066;2023-04-01T07:50:28;5.55;;;1.58;;
14074;SDS011;12831;52.392;13.066;2023-04-01T07:55:42;6.30;;;1.33;;
14074;SDS011;12831;52.392;13.066;2023-04-01T07:58:17;4.63;;;1.63;;
14074;SDS011;12831;52.392;13.066;2023-04-01T08:00:49;6.15;;;1.33;;
14074;SDS011;12831;52.392;13.066;2023-04-01T08:03:43;3.40;;;0.95;;
14074;SDS011;12831;52.392;13.066;2023-04-01T08:08:54;9.00;;;1.60;;
14074;SDS011;12831;52.392;13.066;2023-04-01T08:11:26;4.65;;;1.40;;
14074;SDS011;12831;52.392;13.066;2023-04-01T08:14:02;4.25;;;1.60;;
14074;SDS011;12831;52.392;13.066;2023-04-01T08:16:35;8.52;;;2.13;;
14074;SDS011;12831;52.392;13.066;2023-04-01T08:21:49;3.97;;;1.00;;
14074;SDS011;12831;52.392;13.066;2023-04-01T08:24:23;4.85;;;1.77;;
14074;SDS011;12831;52.392;13.066;2023-04-01T08:26:55;2.38;;;0.88;;
14074;SDS011;12831;52.392;13.066;2023-04-01T08:37:35;5.43;;;1.58;;
14074;SDS011;12831;52.392;13.066;2023-04-01T08:45:21;3.53;;;0.82;;
14074;SDS011;12831;52.392;13.066;2023-04-01T08:50:41;4.10;;;0.90;;
14074;SDS011;12831;52.392;13.066;2023-04-01T08:53:26;3.38;;;1.00;;
14074;SDS011;12831;52.392;13.066;2023-04-01T08:56:03;3.75;;;1.23;;
14074;SDS011;12831;52.392;13.066;2023-04-01T08:58:51;2.00;;;0.80;;
14074;SDS011;12831;52.392;13.066;2023-04-01T09:01:24;3.70;;;0.90;;
14074;SDS011;12831;52.392;13.066;2023-04-01T09:04:08;4.72;;;1.08;;
14074;SDS011;12831;52.392;13.066;2023-04-01T09:29:59;2.53;;;1.00;;
14074;SDS011;12831;52.392;13.066;2023-04-01T09:35:21;4.85;;;1.20;;
14074;SDS011;12831;52.392;13.066;2023-04-01T09:40:31;1.40;;;0.43;;
14074;SDS011;12831;52.392;13.066;2023-04-01T09:43:07;4.18;;;0.82;;
14074;SDS011;12831;52.392;13.066;2023-04-01T09:45:43;3.47;;;0.73;;
14074;SDS011;12831;52.392;13.066;2023-04-01T09:53:30;3.30;;;0.93;;
14074;SDS011;12831;52.392;13.066;2023-04-01T09:59:03;3.13;;;1.08;;
14074;SDS011;12831;52.392;13.066;2023-04-01T10:04:26;6.53;;;1.42;;
14074;SDS011;12831;52.392;13.066;2023-04-01T10:12:46;3.55;;;1.20;;
14074;SDS011;12831;52.392;13.066;2023-04-01T10:18:25;5.75;;;2.63;;
14074;SDS011;12831;52.392;13.066;2023-04-01T10:21:14;6.22;;;2.50;;
14074;SDS011;12831;52.392;13.066;2023-04-01T10:24:26;10.63;;;4.20;;
14074;SDS011;12831;52.392;13.066;2023-04-01T10:37:32;12.00;;;7.82;;
14074;SDS011;12831;52.392;13.066;2023-04-01T10:42:49;12.65;;;9.30;;
14074;SDS011;12831;52.392;13.066;2023-04-01T10:45:30;13.52;;;9.18;;
14074;SDS011;12831;52.392;13.066;2023-04-01T10:57:10;14.15;;;9.00;;
14074;SDS011;12831;52.392;13.066;2023-04-01T11:39:42;9.48;;;7.60;;
14074;SDS011;12831;52.392;13.066;2023-04-01T11:50:58;7.80;;;5.95;;
14074;SDS011;12831;52.392;13.066;2023-04-01T11:54:00;9.75;;;7.45;;
14074;SDS011;12831;52.392;13.066;2023-04-01T11:56:58;9.48;;;7.18;;
14074;SDS011;12831;52.392;13.066;2023-04-01T11:59:55;8.82;;;7.07;;
14074;SDS011;12831;52.392;13.066;2023-04-01T12:11:20;8.23;;;7.15;;
14074;SDS011;12831;52.392;13.066;2023-04-01T12:13:58;9.10;;;7.43;;
14074;SDS011;12831;52.392;13.066;2023-04-01T12:24:35;9.73;;;7.10;;
14074;SDS011;12831;52.392;13.066;2023-04-01T12:27:11;7.93;;;6.63;;
14074;SDS011;12831;52.392;13.066;2023-04-01T12:32:17;7.53;;;6.05;;
14074;SDS011;12831;52.392;13.066;2023-04-01T12:48:01;7.82;;;6.10;;
14074;SDS011;12831;52.392;13.066;2023-04-01T12:55:48;8.82;;;7.57;;
14074;SDS011;12831;52.392;13.066;2023-04-01T12:58:23;10.40;;;8.07;;
14074;SDS011;12831;52.392;13.066;2023-04-01T13:03:48;9.40;;;7.85;;
14074;SDS011;12831;52.392;13.066;2023-04-01T13:56:33;10.88;;;8.15;;
14074;SDS011;12831;52.392;13.066;2023-04-01T14:01:50;11.40;;;9.48;;
14074;SDS011;12831;52.392;13.066;2023-04-01T14:05:02;14.90;;;9.32;;
14074;SDS011;12831;52.392;13.066;2023-04-01T14:15:37;10.05;;;8.50;;
14074;SDS011;12831;52.392;13.066;2023-04-01T14:26:35;12.18;;;9.93;;
14074;SDS011;12831;52.392;13.066;2023-04-01T14:29:17;13.75;;;10.73;;
14074;SDS011;12831;52.392;13.066;2023-04-01T14:31:59;13.32;;;9.68;;
14074;SDS011;12831;52.392;13.066;2023-04-01T14:37:16;16.42;;;9.80;;
14074;SDS011;12831;52.392;13.066;2023-04-01T14:56:05;7.15;;;6.35;;
14074;SDS011;12831;52.392;13.066;2023-04-01T14:58:45;10.35;;;8.30;;
14074;SDS011;12831;52.392;13.066;2023-04-01T15:04:02;10.90;;;9.23;;
14074;SDS011;12831;52.392;13.066;2023-04-01T15:06:34;12.10;;;6.68;;
14074;SDS011;12831;52.392;13.066;2023-04-01T15:11:52;20.48;;;9.60;;
14074;SDS011;12831;52.392;13.066;2023-04-01T15:19:59;17.02;;;7.43;;
14074;SDS011;12831;52.392;13.066;2023-04-01T15:28:01;9.52;;;7.88;;
14074;SDS011;12831;52.392;13.066;2023-04-01T15:30:40;9.10;;;6.97;;
14074;SDS011;12831;52.392;13.066;2023-04-01T15:50:41;8.75;;;7.05;;
14074;SDS011;12831;52.392;13.066;2023-04-01T16:25:39;6.88;;;5.43;;
14074;SDS011;12831;52.392;13.066;2023-04-01T16:39:18;8.80;;;6.43;;
14074;SDS011;12831;52.392;13.066;2023-04-01T16:44:24;10.13;;;6.60;;
14074;SDS011;12831;52.392;13.066;2023-04-01T16:47:06;9.52;;;6.43;;
14074;SDS011;12831;52.392;13.066;2023-04-01T16:49:54;9.95;;;7.72;;
14074;SDS011;12831;52.392;13.066;2023-04-01T16:52:43;8.70;;;6.38;;
14074;SDS011;12831;52.392;13.066;2023-04-01T16:55:35;8.85;;;6.45;;
14074;SDS011;12831;52.392;13.066;2023-04-01T16:58:07;10.55;;;5.80;;
14074;SDS011;12831;52.392;13.066;2023-04-01T17:00:39;11.48;;;7.05;;
14074;SDS011;12831;52.392;13.066;2023-04-01T17:05:42;11.32;;;5.75;;
14074;SDS011;12831;52.392;13.066;2023-04-01T17:22:04;7.25;;;5.03;;
14074;SDS011;12831;52.392;13.066;2023-04-01T17:30:17;7.93;;;4.72;;
14074;SDS011;12831;52.392;13.066;2023-04-01T17:43:36;5.80;;;4.25;;
14074;SDS011;12831;52.392;13.066;2023-04-01T17:52:05;9.90;;;5.28;;
14074;SDS011;12831;52.392;13.066;2023-04-01T18:05:34;4.68;;;3.45;;
14074;SDS011;12831;52.392;13.066;2023-04-01T18:13:32;8.75;;;4.93;;
14074;SDS011;12831;52.392;13.066;2023-04-01T18:21:44;6.50;;;3.17;;
14074;SDS011;12831;52.392;13.066;2023-04-01T18:24:24;6.78;;;3.95;;
14074;SDS011;12831;52.392;13.066;2023-04-01T18:27:11;5.18;;;4.28;;
14074;SDS011;12831;52.392;13.066;2023-04-01T18:35:12;6.32;;;4.40;;
14074;SDS011;12831;52.392;13.066;2023-04-01T18:40:34;4.90;;;3.33;;
14074;SDS011;12831;52.392;13.066;2023-04-01T18:43:02;6.43;;;4.38;;
14074;SDS011;12831;52.392;13.066;2023-04-01T18:45:35;7.10;;;4.20;;
14074;SDS011;12831;52.392;13.066;2023-04-01T18:48:33;4.35;;;2.35;;
14074;SDS011;12831;52.392;13.066;2023-04-01T18:51:17;4.68;;;2.95;;
14074;SDS011;12831;52.392;13.066;2023-04-01T18:53:55;6.15;;;3.35;;
14074;SDS011;12831;52.392;13.066;2023-04-01T18:56:23;5.05;;;3.72;;
14074;SDS011;12831;52.392;13.066;2023-04-01T19:01:42;5.05;;;3.60;;
14074;SDS011;12831;52.392;13.066;2023-04-01T19:07:00;4.70;;;3.13;;
14074;SDS011;12831;52.392;13.066;2023-04-01T19:09:31;6.35;;;4.55;;
14074;SDS011;12831;52.392;13.066;2023-04-01T19:14:44;9.90;;;4.93;;
14074;SDS011;12831;52.392;13.066;2023-04-01T19:20:10;6.13;;;3.72;;
14074;SDS011;12831;52.392;13.066;2023-04-01T19:22:50;6.30;;;4.68;;
14074;SDS011;12831;52.392;13.066;2023-04-01T19:25:23;6.05;;;4.00;;
14074;SDS011;12831;52.392;13.066;2023-04-01T19:28:39;9.13;;;4.95;;
14074;SDS011;12831;52.392;13.066;2023-04-01T19:30:41;8.60;;;4.25;;
14074;SDS011;12831;52.392;13.066;2023-04-01T19:38:38;9.65;;;5.53;;
14074;SDS011;12831;52.392;13.066;2023-04-01T19:46:38;7.70;;;5.55;;
14074;SDS011;12831;52.392;13.066;2023-04-01T19:49:11;6.70;;;3.83;;
14074;SDS011;12831;52.392;13.066;2023-04-01T19:59:53;8.13;;;4.88;;
14074;SDS011;12831;52.392;13.066;2023-04-01T20:02:37;5.88;;;4.15;;
14074;SDS011;12831;52.392;13.066;2023-04-01T20:05:20;8.43;;;4.90;;
14074;SDS011;12831;52.392;13.066;2023-04-01T20:07:52;7.65;;;3.80;;
14074;SDS011;12831;52.392;13.066;2023-04-01T20:15:36;7.55;;;5.35;;
14074;SDS011;12831;52.392;13.066;2023-04-01T20:18:23;6.40;;;4.75;;
14074;SDS011;12831;52.392;13.066;2023-04-01T20:20:54;9.80;;;5.68;;
14074;SDS011;12831;52.392;13.066;2023-04-01T20:23:30;10.18;;;4.70;;
14074;SDS011;12831;52.392;13.066;2023-04-01T20:26:00;8.32;;;6.03;;
14074;SDS011;12831;52.392;13.066;2023-04-01T20:31:23;14.75;;;5.35;;
14074;SDS011;12831;52.392;13.066;2023-04-01T20:44:44;8.43;;;5.13;;
14074;SDS011;12831;52.392;13.066;2023-04-01T20:52:49;11.90;;;6.60;;
14074;SDS011;12831;52.392;13.066;2023-04-01T20:55:23;4.65;;;2.97;;
14074;SDS011;12831;52.392;13.066;2023-04-01T21:03:34;10.00;;;5.55;;
14074;SDS011;12831;52.392;13.066;2023-04-01T21:11:24;11.70;;;7.32;;
14074;SDS011;12831;52.392;13.066;2023-04-01T21:13:58;11.25;;;7.30;;
14074;SDS011;12831;52.392;13.066;2023-04-01T21:27:05;9.90;;;4.38;;
14074;SDS011;12831;52.392;13.066;2023-04-01T21:29:51;16.00;;;7.70;;
14074;SDS011;12831;52.392;13.066;2023-04-01T21:42:40;7.40;;;4.10;;
14074;SDS011;12831;52.392;13.066;2023-04-01T21:50:39;14.05;;;8.07;;
14074;SDS011;12831;52.392;13.066;2023-04-01T21:53:12;13.05;;;7.22;;
14074;SDS011;12831;52.392;13.066;2023-04-01T21:56:02;10.90;;;6.57;;
14074;SDS011;12831;52.392;13.066;2023-04-01T21:58:55;11.75;;;6.57;;
14074;SDS011;12831;52.392;13.066;2023-04-01T22:01:43;11.40;;;6.25;;
14074;SDS011;12831;52.392;13.066;2023-04-01T22:04:18;8.38;;;6.07;;
14074;SDS011;12831;52.392;13.066;2023-04-01T22:09:39;14.73;;;7.03;;
14074;SDS011;12831;52.392;13.066;2023-04-01T22:12:17;13.82;;;7.32;;
14074;SDS011;12831;52.392;13.066;2023-04-01T22:14:47;9.73;;;5.35;;
14074;SDS011;12831;52.392;13.066;2023-04-01T22:17:25;14.23;;;6.30;;
14074;SDS011;12831;52.392;13.066;2023-04-01T22:19:56;10.90;;;6.88;;
14074;SDS011;12831;52.392;13.066;2023-04-01T22:22:31;13.95;;;7.55;;
14074;SDS011;12831;52.392;13.066;2023-04-01T22:27:28;10.70;;;6.05;;
14074;SDS011;12831;52.392;13.066;2023-04-01T22:30:42;8.32;;;5.65;;
14074;SDS011;12831;52.392;13.066;2023-04-01T22:32:44;9.98;;;5.45;;
14074;SDS011;12831;52.392;13.066;2023-04-01T22:35:21;10.15;;;6.22;;
14074;SDS011;12831;52.392;13.066;2023-04-01T22:38:18;8.55;;;5.18;;
14074;SDS011;12831;52.392;13.066;2023-04-01T22:41:02;8.10;;;5.15;;
14074;SDS011;12831;52.392;13.066;2023-04-01T22:43:38;10.20;;;5.10;;
14074;SDS011;12831;52.392;13.066;2023-04-01T22:51:15;11.20;;;5.55;;
14074;SDS011;12831;52.392;13.066;2023-04-01T22:56:14;6.38;;;4.30;;
14074;SDS011;12831;52.392;13.066;2023-04-01T22:58:43;5.60;;;3.35;;
14074;SDS011;12831;52.392;13.066;2023-04-01T23:01:17;10.77;;;4.97;;
14074;SDS011;12831;52.392;13.066;2023-04-01T23:03:46;8.10;;;3.40;;
14074;SDS011;12831;52.392;13.066;2023-04-01T23:06:19;9.63;;;4.72;;
14074;SDS011;12831;52.392;13.066;2023-04-01T23:11:19;6.63;;;3.75;;
14074;SDS011;12831;52.392;13.066;2023-04-01T23:13:49;6.18;;;3.58;;
14074;SDS011;12831;52.392;13.066;2023-04-01T23:18:55;5.90;;;3.47;;
14074;SDS011;12831;52.392;13.066;2023-04-01T23:21:35;7.07;;;4.20;;
14074;SDS011;12831;52.392;13.066;2023-04-01T23:26:38;6.43;;;3.65;;
14074;SDS011;12831;52.392;13.066;2023-04-01T23:29:06;10.25;;;3.92;;
14074;SDS011;12831;52.392;13.066;2023-04-01T23:31:40;8.45;;;3.88;;
14074;SDS011;12831;52.392;13.066;2023-04-01T23:39:05;7.20;;;4.00;;
14074;SDS011;12831;52.392;13.066;2023-04-01T23:44:03;7.85;;;3.83;;
14074;SDS011;12831;52.392;13.066;2023-04-01T23:46:30;6.03;;;3.53;;
14074;SDS011;12831;52.392;13.066;2023-04-01T23:48:58;6.22;;;2.72;;
14074;SDS011;12831;52.392;13.066;2023-04-01T23:51:27;7.20;;;3.88;;
14074;SDS011;12831;52.392;13.066;2023-04-01T23:54:04;4.78;;;3.22;;
14074;SDS011;12831;52.392;13.066;2023-04-01T23:56:41;5.22;;;3.30;;
14074;SDS011;12831;52.392;13.066;2023-04-01T23:59:10;7.78;;;3.53;;
